sensor_id;sensor_type;location;lat;lon;timestamp;P1;durP1;ratioP1;P2;durP2;ratioP2
18267;SDS011;9260;49.998;19.880;2023-03-14T00:04:32;192.87;;;83.20;;
18267;SDS011;9260;49.998;19.880;2023-03-14T00:14:35;192.63;;;84.43;;
18267;SDS011;9260;49.998;19.880;2023-03-14T00:24:40;193.97;;;85.43;;
18267;SDS011;9260;49.998;19.880;2023-03-14T00:34:43;198.90;;;87.93;;
18267;SDS011;9260;49.998;19.880;2023-03-14T00:44:48;199.87;;;87.20;;
18267;SDS011;9260;49.998;19.880;2023-03-14T00:54:52;200.07;;;88.17;;
18267;SDS011;9260;49.998;19.880;2023-03-14T01:04:57;196.37;;;82.93;;
18267;SDS011;9260;49.998;19.880;2023-03-14T01:15:01;198.13;;;85.30;;
18267;SDS011;9260;49.998;19.880;2023-03-14T01:25:08;192.93;;;83.50;;
18267;SDS011;9260;49.998;19.880;2023-03-14T01:35:14;208.03;;;88.80;;
18267;SDS011;9260;49.998;19.880;2023-03-14T01:56:24;197.93;;;85.80;;
18267;SDS011;9260;49.998;19.880;2023-03-14T02:06:29;197.27;;;86.80;;
18267;SDS011;9260;49.998;19.880;2023-03-14T02:16:42;199.50;;;85.63;;
18267;SDS011;9260;49.998;19.880;2023-03-14T02:27:17;200.07;;;81.53;;
18267;SDS011;9260;49.998;19.880;2023-03-14T02:37:22;199.37;;;85.30;;
18267;SDS011;9260;49.998;19.880;2023-03-14T02:47:32;196.00;;;82.63;;
18267;SDS011;9260;49.998;19.880;2023-03-14T02:57:35;197.27;;;82.30;;
18267;SDS011;9260;49.998;19.880;2023-03-14T03:07:40;201.60;;;84.27;;
18267;SDS011;9260;49.998;19.880;2023-03-14T03:17:44;200.40;;;81.77;;
18267;SDS011;9260;49.998;19.880;2023-03-14T03:27:49;198.00;;;86.03;;
18267;SDS011;9260;49.998;19.880;2023-03-14T03:37:53;188.53;;;86.87;;
18267;SDS011;9260;49.998;19.880;2023-03-14T03:47:58;192.17;;;87.47;;
18267;SDS011;9260;49.998;19.880;2023-03-14T03:58:02;192.83;;;90.00;;
18267;SDS011;9260;49.998;19.880;2023-03-14T04:08:06;191.63;;;85.20;;
18267;SDS011;9260;49.998;19.880;2023-03-14T04:18:11;199.10;;;88.07;;
18267;SDS011;9260;49.998;19.880;2023-03-14T04:28:18;190.57;;;85.83;;
18267;SDS011;9260;49.998;19.880;2023-03-14T04:38:22;197.00;;;85.13;;
18267;SDS011;9260;49.998;19.880;2023-03-14T04:48:28;204.90;;;87.73;;
18267;SDS011;9260;49.998;19.880;2023-03-14T04:58:33;219.33;;;90.43;;
18267;SDS011;9260;49.998;19.880;2023-03-14T05:08:40;197.43;;;81.37;;
18267;SDS011;9260;49.998;19.880;2023-03-14T05:19:01;215.23;;;92.37;;
18267;SDS011;9260;49.998;19.880;2023-03-14T05:29:18;207.10;;;89.90;;
18267;SDS011;9260;49.998;19.880;2023-03-14T05:39:37;205.30;;;86.80;;
18267;SDS011;9260;49.998;19.880;2023-03-14T05:50:04;204.20;;;91.73;;
18267;SDS011;9260;49.998;19.880;2023-03-14T06:00:22;214.10;;;88.40;;
18267;SDS011;9260;49.998;19.880;2023-03-14T06:10:41;207.60;;;89.20;;
18267;SDS011;9260;49.998;19.880;2023-03-14T06:20:45;207.60;;;87.90;;
18267;SDS011;9260;49.998;19.880;2023-03-14T06:30:57;211.20;;;91.20;;
18267;SDS011;9260;49.998;19.880;2023-03-14T06:41:07;224.07;;;88.23;;
18267;SDS011;9260;49.998;19.880;2023-03-14T06:51:16;227.77;;;96.63;;
18267;SDS011;9260;49.998;19.880;2023-03-14T07:01:21;269.88;;;129.23;;
18267;SDS011;9260;49.998;19.880;2023-03-14T07:11:33;225.00;;;102.87;;
18267;SDS011;9260;49.998;19.880;2023-03-14T07:21:37;204.77;;;98.73;;
18267;SDS011;9260;49.998;19.880;2023-03-14T07:31:46;211.53;;;99.90;;
18267;SDS011;9260;49.998;19.880;2023-03-14T07:41:53;217.10;;;108.27;;
18267;SDS011;9260;49.998;19.880;2023-03-14T07:52:31;224.87;;;102.73;;
18267;SDS011;9260;49.998;19.880;2023-03-14T08:02:34;217.10;;;101.50;;
18267;SDS011;9260;49.998;19.880;2023-03-14T08:12:40;212.90;;;99.13;;
18267;SDS011;9260;49.998;19.880;2023-03-14T08:22:43;213.40;;;101.53;;
18267;SDS011;9260;49.998;19.880;2023-03-14T08:32:48;210.53;;;102.73;;
18267;SDS011;9260;49.998;19.880;2023-03-14T08:42:52;220.77;;;106.50;;
18267;SDS011;9260;49.998;19.880;2023-03-14T08:52:57;222.93;;;107.03;;
18267;SDS011;9260;49.998;19.880;2023-03-14T09:03:01;213.97;;;100.07;;
18267;SDS011;9260;49.998;19.880;2023-03-14T09:13:06;210.37;;;98.93;;
18267;SDS011;9260;49.998;19.880;2023-03-14T09:23:09;216.63;;;102.87;;
18267;SDS011;9260;49.998;19.880;2023-03-14T09:33:14;212.27;;;99.93;;
18267;SDS011;9260;49.998;19.880;2023-03-14T09:43:18;206.50;;;99.90;;
18267;SDS011;9260;49.998;19.880;2023-03-14T09:53:25;212.13;;;98.07;;
18267;SDS011;9260;49.998;19.880;2023-03-14T10:03:34;212.87;;;99.17;;
18267;SDS011;9260;49.998;19.880;2023-03-14T10:13:48;220.87;;;104.57;;
18267;SDS011;9260;49.998;19.880;2023-03-14T10:24:08;210.37;;;106.60;;
18267;SDS011;9260;49.998;19.880;2023-03-14T10:34:25;216.27;;;118.03;;
18267;SDS011;9260;49.998;19.880;2023-03-14T10:44:30;216.33;;;113.43;;
18267;SDS011;9260;49.998;19.880;2023-03-14T10:54:36;221.47;;;118.60;;
18267;SDS011;9260;49.998;19.880;2023-03-14T11:04:47;221.73;;;111.90;;
18267;SDS011;9260;49.998;19.880;2023-03-14T11:15:09;213.37;;;103.27;;
18267;SDS011;9260;49.998;19.880;2023-03-14T11:25:21;227.93;;;109.83;;
18267;SDS011;9260;49.998;19.880;2023-03-14T11:35:37;234.20;;;104.53;;
18267;SDS011;9260;49.998;19.880;2023-03-14T11:45:48;236.37;;;107.60;;
18267;SDS011;9260;49.998;19.880;2023-03-14T11:55:55;226.67;;;108.10;;
18267;SDS011;9260;49.998;19.880;2023-03-14T12:06:00;225.47;;;103.97;;
18267;SDS011;9260;49.998;19.880;2023-03-14T12:16:25;221.03;;;98.10;;
18267;SDS011;9260;49.998;19.880;2023-03-14T12:26:49;224.33;;;99.63;;
18267;SDS011;9260;49.998;19.880;2023-03-14T12:58:05;235.27;;;105.40;;
18267;SDS011;9260;49.998;19.880;2023-03-14T13:08:15;221.90;;;93.97;;
18267;SDS011;9260;49.998;19.880;2023-03-14T13:18:43;231.83;;;100.27;;
18267;SDS011;9260;49.998;19.880;2023-03-14T13:28:47;220.60;;;97.20;;
18267;SDS011;9260;49.998;19.880;2023-03-14T13:38:56;218.70;;;94.10;;
18267;SDS011;9260;49.998;19.880;2023-03-14T13:49:03;215.83;;;94.63;;
18267;SDS011;9260;49.998;19.880;2023-03-14T13:59:22;222.37;;;97.60;;
18267;SDS011;9260;49.998;19.880;2023-03-14T14:09:26;219.10;;;97.67;;
18267;SDS011;9260;49.998;19.880;2023-03-14T14:19:33;222.40;;;98.57;;
18267;SDS011;9260;49.998;19.880;2023-03-14T14:29:38;227.83;;;99.43;;
18267;SDS011;9260;49.998;19.880;2023-03-14T14:39:43;222.93;;;101.63;;
18267;SDS011;9260;49.998;19.880;2023-03-14T14:49:47;218.80;;;91.97;;
18267;SDS011;9260;49.998;19.880;2023-03-14T14:59:54;224.47;;;97.10;;
18267;SDS011;9260;49.998;19.880;2023-03-14T15:09:59;221.23;;;95.83;;
18267;SDS011;9260;49.998;19.880;2023-03-14T15:20:05;221.40;;;95.93;;
18267;SDS011;9260;49.998;19.880;2023-03-14T15:30:15;222.33;;;95.50;;
18267;SDS011;9260;49.998;19.880;2023-03-14T15:40:21;225.77;;;100.23;;
18267;SDS011;9260;49.998;19.880;2023-03-14T15:50:30;225.23;;;92.47;;
18267;SDS011;9260;49.998;19.880;2023-03-14T16:00:36;224.03;;;96.50;;
18267;SDS011;9260;49.998;19.880;2023-03-14T16:10:39;221.37;;;92.73;;
18267;SDS011;9260;49.998;19.880;2023-03-14T16:20:44;217.80;;;97.67;;
18267;SDS011;9260;49.998;19.880;2023-03-14T16:30:59;220.57;;;92.40;;
18267;SDS011;9260;49.998;19.880;2023-03-14T16:41:05;221.40;;;93.67;;
18267;SDS011;9260;49.998;19.880;2023-03-14T16:51:13;217.80;;;88.40;;
18267;SDS011;9260;49.998;19.880;2023-03-14T17:01:18;220.90;;;94.30;;
18267;SDS011;9260;49.998;19.880;2023-03-14T17:11:23;230.47;;;94.97;;
18267;SDS011;9260;49.998;19.880;2023-03-14T17:21:28;236.67;;;108.17;;
18267;SDS011;9260;49.998;19.880;2023-03-14T17:31:32;235.67;;;98.07;;
18267;SDS011;9260;49.998;19.880;2023-03-14T17:41:37;215.93;;;88.47;;
18267;SDS011;9260;49.998;19.880;2023-03-14T17:51:41;230.90;;;122.57;;
18267;SDS011;9260;49.998;19.880;2023-03-14T18:01:46;218.37;;;93.47;;
18267;SDS011;9260;49.998;19.880;2023-03-14T18:11:49;224.27;;;97.43;;
18267;SDS011;9260;49.998;19.880;2023-03-14T18:22:09;228.10;;;107.00;;
18267;SDS011;9260;49.998;19.880;2023-03-14T18:32:13;231.37;;;103.53;;
18267;SDS011;9260;49.998;19.880;2023-03-14T18:42:19;230.00;;;99.77;;
18267;SDS011;9260;49.998;19.880;2023-03-14T18:52:22;230.27;;;99.20;;
18267;SDS011;9260;49.998;19.880;2023-03-14T19:02:27;223.67;;;96.87;;
18267;SDS011;9260;49.998;19.880;2023-03-14T19:12:31;226.17;;;95.60;;
18267;SDS011;9260;49.998;19.880;2023-03-14T19:22:36;226.23;;;97.83;;
18267;SDS011;9260;49.998;19.880;2023-03-14T19:32:39;225.30;;;96.67;;
18267;SDS011;9260;49.998;19.880;2023-03-14T19:42:44;224.83;;;96.43;;
18267;SDS011;9260;49.998;19.880;2023-03-14T19:52:48;226.47;;;102.00;;
18267;SDS011;9260;49.998;19.880;2023-03-14T20:02:53;216.97;;;92.93;;
18267;SDS011;9260;49.998;19.880;2023-03-14T20:12:57;211.90;;;90.23;;
18267;SDS011;9260;49.998;19.880;2023-03-14T20:23:11;223.93;;;99.80;;
18267;SDS011;9260;49.998;19.880;2023-03-14T20:33:14;213.60;;;92.53;;
18267;SDS011;9260;49.998;19.880;2023-03-14T20:43:23;226.77;;;98.93;;
18267;SDS011;9260;49.998;19.880;2023-03-14T20:53:27;220.20;;;93.10;;
18267;SDS011;9260;49.998;19.880;2023-03-14T21:03:32;204.93;;;83.50;;
18267;SDS011;9260;49.998;19.880;2023-03-14T21:13:35;204.40;;;83.83;;
18267;SDS011;9260;49.998;19.880;2023-03-14T21:23:40;204.77;;;83.23;;
18267;SDS011;9260;49.998;19.880;2023-03-14T21:33:44;204.03;;;81.37;;
18267;SDS011;9260;49.998;19.880;2023-03-14T21:43:50;202.60;;;83.17;;
18267;SDS011;9260;49.998;19.880;2023-03-14T21:53:54;201.33;;;81.17;;
18267;SDS011;9260;49.998;19.880;2023-03-14T22:03:59;201.33;;;82.37;;
18267;SDS011;9260;49.998;19.880;2023-03-14T22:14:02;201.33;;;83.13;;
18267;SDS011;9260;49.998;19.880;2023-03-14T22:24:07;199.73;;;83.57;;
18267;SDS011;9260;49.998;19.880;2023-03-14T22:34:11;199.83;;;78.57;;
18267;SDS011;9260;49.998;19.880;2023-03-14T22:44:16;209.37;;;86.07;;
18267;SDS011;9260;49.998;19.880;2023-03-14T22:54:20;216.23;;;88.13;;
18267;SDS011;9260;49.998;19.880;2023-03-14T23:04:25;222.30;;;111.40;;
18267;SDS011;9260;49.998;19.880;2023-03-14T23:14:28;204.37;;;84.23;;
18267;SDS011;9260;49.998;19.880;2023-03-14T23:24:33;201.13;;;82.27;;
18267;SDS011;9260;49.998;19.880;2023-03-14T23:34:37;200.87;;;83.60;;
18267;SDS011;9260;49.998;19.880;2023-03-14T23:44:42;210.17;;;88.67;;
18267;SDS011;9260;49.998;19.880;2023-03-14T23:54:45;222.17;;;109.73;;
